Time;durP1;ratioP1;P1;durP2;ratioP2;P2;SDS_P1;SDS_P2;PMS_P1;PMS_P2;Temp;Humidity;BMP_temperature;BMP_pressure;BME280_temperature;BME280_humidity;BME280_pressure;Samples;Min_cycle;Max_cycle;Signal;HPM_P1;HPM_P2
2021/06/06 00:00:56;;;;;;;15.63;13.70;;;20.90;94.70;;;;;;5032586;28;20045;-76
2021/06/06 00:03:24;;;;;;;16.83;14.40;;;20.90;94.80;;;;;;5034552;28;20033;-78
2021/06/06 00:05:57;;;;;;;14.25;12.85;;;20.90;94.90;;;;;;5045247;28;20041;-77
2021/06/06 00:08:25;;;;;;;13.40;12.05;;;20.90;94.90;;;;;;5028961;28;20556;-76
2021/06/06 00:10:55;;;;;;;14.13;12.73;;;20.90;94.90;;;;;;5037419;28;20029;-76
2021/06/06 00:13:23;;;;;;;16.77;15.05;;;20.90;94.90;;;;;;5052359;28;20135;-77
2021/06/06 00:15:48;;;;;;;17.63;15.93;;;20.90;94.90;;;;;;5017580;28;20069;-77
2021/06/06 00:18:14;;;;;;;15.60;14.20;;;20.90;95.00;;;;;;5051870;28;20068;-77
2021/06/06 00:20:41;;;;;;;17.50;15.90;;;20.60;95.60;;;;;;5038712;28;20036;-78
2021/06/06 00:23:08;;;;;;;23.77;17.90;;;20.50;95.70;;;;;;5046320;28;20393;-78
2021/06/06 00:25:34;;;;;;;18.30;16.50;;;20.60;95.50;;;;;;5060447;28;20492;-76
2021/06/06 00:28:00;;;;;;;17.08;15.40;;;20.30;96.10;;;;;;5057491;28;20665;-78
2021/06/06 00:30:27;;;;;;;18.75;16.92;;;20.40;96.00;;;;;;5056986;28;20095;-78
2021/06/06 00:32:52;;;;;;;17.33;15.80;;;20.30;96.00;;;;;;5026035;28;20038;-77
2021/06/06 00:35:19;;;;;;;16.42;14.90;;;20.30;96.20;;;;;;5051488;28;20095;-77
2021/06/06 00:37:45;;;;;;;19.15;17.27;;;20.30;96.00;;;;;;5039671;28;20047;-77
2021/06/06 00:40:15;;;;;;;15.82;14.25;;;20.30;96.00;;;;;;5036868;28;20540;-78
2021/06/06 00:42:40;;;;;;;15.88;14.20;;;20.30;96.10;;;;;;5059090;28;20032;-77
2021/06/06 00:45:10;;;;;;;16.73;15.15;;;20.40;96.10;;;;;;5019477;28;20701;-78
2021/06/06 00:47:36;;;;;;;15.15;13.80;;;20.50;95.70;;;;;;5045966;28;20025;-78
2021/06/06 00:50:07;;;;;;;16.73;15.02;;;20.50;95.60;;;;;;5031967;28;20049;-77
2021/06/06 00:52:34;;;;;;;15.73;14.27;;;20.50;95.50;;;;;;5031106;28;20035;-78
2021/06/06 00:55:02;;;;;;;22.80;20.27;;;20.60;95.50;;;;;;5030401;28;20036;-78
2021/06/06 00:57:31;;;;;;;20.17;17.80;;;20.70;95.30;;;;;;5021124;28;20106;-78
2021/06/06 01:00:30;;;;;;;17.00;15.40;;;20.80;95.20;;;;;;5034454;28;20095;-77
2021/06/06 01:02:56;;;;;;;17.13;15.02;;;20.80;95.00;;;;;;5044673;28;20029;-78
2021/06/06 01:05:24;;;;;;;16.98;14.98;;;20.90;94.90;;;;;;5028184;28;20091;-79
2021/06/06 01:07:50;;;;;;;17.00;15.32;;;21.00;94.70;;;;;;5037990;28;20037;-79
2021/06/06 01:10:16;;;;;;;17.63;15.93;;;21.00;94.60;;;;;;5024488;28;20112;-80
2021/06/06 01:12:47;;;;;;;36.83;30.92;;;21.00;94.50;;;;;;5055577;28;20508;-80
2021/06/06 01:15:22;;;;;;;46.03;36.78;;;21.10;94.50;;;;;;5065118;28;20699;-79
2021/06/06 01:18:02;;;;;;;82.22;57.40;;;21.00;94.40;;;;;;5036798;28;20048;-80
2021/06/06 01:20:50;;;;;;;83.28;56.80;;;21.00;94.50;;;;;;5052395;28;20044;-78
2021/06/06 01:23:51;;;;;;;32.95;28.02;;;21.00;94.50;;;;;;5054510;28;20025;-79
2021/06/06 01:26:32;;;;;;;41.70;32.85;;;20.90;94.70;;;;;;5052161;28;20079;-79
2021/06/06 01:29:11;;;;;;;25.70;22.45;;;21.00;94.60;;;;;;5043495;28;20477;-79
2021/06/06 01:31:41;;;;;;;18.90;17.00;;;21.00;94.40;;;;;;5045754;28;20033;-79
2021/06/06 01:34:10;;;;;;;19.33;17.27;;;21.00;94.40;;;;;;5057403;28;20043;-80
2021/06/06 01:36:41;;;;;;;18.08;16.20;;;20.90;94.50;;;;;;5053475;28;20095;-79
2021/06/06 01:39:20;;;;;;;18.00;16.38;;;20.90;94.60;;;;;;5059488;28;20029;-80
2021/06/06 01:41:51;;;;;;;16.50;14.98;;;20.90;94.60;;;;;;5046059;28;20033;-80
2021/06/06 01:44:21;;;;;;;17.95;16.33;;;21.00;94.60;;;;;;5060310;28;20021;-80
2021/06/06 01:46:51;;;;;;;17.20;15.60;;;21.00;94.30;;;;;;5041544;28;20025;-79
2021/06/06 01:49:20;;;;;;;17.42;15.93;;;20.90;94.60;;;;;;5062550;28;20028;-79
2021/06/06 01:51:50;;;;;;;16.45;14.95;;;20.90;94.60;;;;;;5017416;28;20042;-79
2021/06/06 01:54:18;;;;;;;20.00;18.10;;;20.90;94.50;;;;;;5030471;28;20033;-78
2021/06/06 01:56:47;;;;;;;18.73;17.00;;;20.80;94.70;;;;;;5012248;28;20541;-79
2021/06/06 01:59:32;;;;;;;17.90;16.10;;;20.70;95.00;;;;;;5037584;28;20040;-79
2021/06/06 02:01:58;;;;;;;18.73;17.02;;;20.60;95.10;;;;;;5018006;28;20443;-78
2021/06/06 02:04:24;;;;;;;20.23;18.30;;;20.60;95.10;;;;;;4997236;28;20037;-79
2021/06/06 02:07:03;;;;;;;21.27;19.25;;;20.50;95.50;;;;;;5052287;28;20025;-79
2021/06/06 02:09:32;;;;;;;20.92;19.02;;;20.40;95.80;;;;;;5055411;28;20032;-79
2021/06/06 02:12:06;;;;;;;20.15;18.35;;;20.20;96.00;;;;;;5030680;28;20033;-79
2021/06/06 02:14:37;;;;;;;19.20;17.50;;;20.30;96.00;;;;;;5020792;28;20033;-79
2021/06/06 02:17:07;;;;;;;19.65;17.88;;;20.20;96.20;;;;;;5055362;28;20033;-79
2021/06/06 02:19:34;;;;;;;23.27;21.08;;;20.20;96.10;;;;;;5037404;28;20049;-80
2021/06/06 02:22:06;;;;;;;20.92;18.77;;;20.10;96.30;;;;;;5047052;28;20041;-78
2021/06/06 02:24:33;;;;;;;21.40;19.40;;;20.10;96.60;;;;;;5024900;28;20086;-79
2021/06/06 02:27:29;;;;;;;21.90;19.90;;;20.00;96.60;;;;;;5043173;28;20026;-79
2021/06/06 02:30:12;;;;;;;23.38;21.08;;;19.90;97.00;;;;;;5040464;28;20454;-80
2021/06/06 02:33:00;;;;;;;22.45;20.25;;;19.90;96.90;;;;;;5037378;28;20021;-78
2021/06/06 02:35:31;;;;;;;21.52;19.60;;;19.90;97.00;;;;;;5052258;28;20039;-79
2021/06/06 02:38:11;;;;;;;20.08;18.08;;;19.80;96.90;;;;;;5021364;28;20021;-79
2021/06/06 02:40:51;;;;;;;20.48;18.38;;;19.80;97.20;;;;;;5037274;28;20021;-79
2021/06/06 02:43:24;;;;;;;19.08;17.30;;;19.90;97.20;;;;;;5068617;28;20037;-80
2021/06/06 02:45:56;;;;;;;19.23;17.33;;;20.00;97.10;;;;;;5039464;28;20555;-79
2021/06/06 02:48:30;;;;;;;18.45;16.77;;;20.10;96.50;;;;;;5030135;28;20105;-79
2021/06/06 02:51:03;;;;;;;21.08;18.13;;;20.20;96.30;;;;;;5028408;28;20045;-79
2021/06/06 02:53:35;;;;;;;19.15;17.38;;;20.20;96.20;;;;;;5054649;28;20068;-79
2021/06/06 02:56:12;;;;;;;22.40;20.30;;;20.30;96.00;;;;;;5040675;28;20461;-79
2021/06/06 02:58:49;;;;;;;22.33;20.35;;;20.30;95.90;;;;;;5022487;28;20051;-79
2021/06/06 03:01:20;;;;;;;20.50;18.63;;;20.10;96.50;;;;;;5036931;28;20117;-79
2021/06/06 03:03:46;;;;;;;19.48;17.65;;;20.10;96.50;;;;;;5019210;28;20029;-79
2021/06/06 03:06:18;;;;;;;20.15;18.25;;;20.10;96.50;;;;;;5029351;28;20029;-79
2021/06/06 03:08:44;;;;;;;19.20;17.40;;;20.20;96.40;;;;;;5040519;28;20638;-78
2021/06/06 03:11:13;;;;;;;20.00;18.17;;;20.30;96.00;;;;;;5029492;28;20088;-79
2021/06/06 03:13:44;;;;;;;23.10;21.00;;;20.40;95.80;;;;;;5053818;28;20072;-78
2021/06/06 03:16:11;;;;;;;18.08;16.30;;;20.30;95.70;;;;;;5033331;28;20033;-78
2021/06/06 03:18:40;;;;;;;17.92;16.23;;;20.30;95.90;;;;;;5030233;28;20060;-78
2021/06/06 03:21:29;;;;;;;18.30;16.60;;;20.30;95.90;;;;;;5040229;28;20079;-79
2021/06/06 03:24:20;;;;;;;17.98;16.38;;;20.50;95.80;;;;;;5040593;28;20029;-79
2021/06/06 03:26:50;;;;;;;17.67;15.85;;;20.50;95.50;;;;;;5038087;28;20095;-79
2021/06/06 03:29:19;;;;;;;19.95;17.95;;;20.50;95.50;;;;;;5041161;28;20037;-80
2021/06/06 03:31:51;;;;;;;19.15;17.45;;;20.60;95.30;;;;;;5032638;28;20037;-80
2021/06/06 03:34:17;;;;;;;21.70;19.70;;;20.60;95.30;;;;;;5050269;28;20033;-79
2021/06/06 03:36:45;;;;;;;21.63;19.52;;;20.60;95.20;;;;;;5073801;28;20025;-78
2021/06/06 03:39:17;;;;;;;20.20;18.40;;;20.60;95.20;;;;;;5070807;28;20577;-77
2021/06/06 03:41:44;;;;;;;20.45;18.45;;;20.50;95.50;;;;;;5056639;28;20083;-78
2021/06/06 03:44:10;;;;;;;18.83;17.15;;;20.50;95.70;;;;;;5037402;28;20112;-77
2021/06/06 03:46:37;;;;;;;19.50;17.83;;;20.50;95.70;;;;;;5004657;28;20065;-77
2021/06/06 03:49:05;;;;;;;19.48;17.05;;;20.50;95.50;;;;;;5055080;28;20021;-78
2021/06/06 03:51:31;;;;;;;16.60;15.20;;;20.50;95.50;;;;;;5056163;28;20043;-79
2021/06/06 03:53:57;;;;;;;20.38;18.33;;;20.50;95.50;;;;;;5050808;28;20112;-79
2021/06/06 03:56:23;;;;;;;18.73;16.67;;;20.50;95.50;;;;;;5037156;28;20032;-78
2021/06/06 03:58:49;;;;;;;21.15;19.15;;;20.60;95.50;;;;;;5037641;28;20447;-78
2021/06/06 04:01:15;;;;;;;19.00;17.08;;;20.50;95.40;;;;;;5028400;28;20037;-79
2021/06/06 04:03:40;;;;;;;21.42;19.42;;;20.50;95.40;;;;;;5040361;28;20037;-79
2021/06/06 04:06:07;;;;;;;21.30;19.50;;;20.50;95.40;;;;;;5056976;28;20025;-79
2021/06/06 04:08:33;;;;;;;21.08;19.13;;;20.50;95.40;;;;;;5054963;28;20022;-78
2021/06/06 04:10:59;;;;;;;20.55;18.40;;;20.50;95.60;;;;;;5030999;28;20025;-79
2021/06/06 04:13:25;;;;;;;20.73;19.00;;;20.50;95.50;;;;;;5024906;28;20033;-78
2021/06/06 04:15:51;;;;;;;22.17;20.10;;;20.50;95.60;;;;;;5036250;28;20029;-78
2021/06/06 04:18:27;;;;;;;21.92;19.73;;;20.40;95.60;;;;;;5041165;28;20036;-78
2021/06/06 04:20:54;;;;;;;22.42;20.30;;;20.50;95.70;;;;;;5035864;28;20115;-78
2021/06/06 04:23:21;;;;;;;22.58;20.27;;;20.40;96.00;;;;;;5043668;28;20516;-78
2021/06/06 04:25:48;;;;;;;23.38;21.27;;;20.40;95.70;;;;;;5028983;28;20029;-79
2021/06/06 04:28:13;;;;;;;23.35;21.20;;;20.40;95.50;;;;;;5027326;28;20044;-78
2021/06/06 04:30:39;;;;;;;23.85;21.38;;;20.20;95.80;;;;;;5012908;28;20033;-79
2021/06/06 04:33:08;;;;;;;22.42;20.23;;;20.20;96.00;;;;;;5041903;28;20033;-79
2021/06/06 04:35:36;;;;;;;25.98;23.58;;;20.10;96.30;;;;;;5027426;28;20052;-80
2021/06/06 04:38:03;;;;;;;27.92;25.20;;;20.20;96.70;;;;;;5051086;28;20033;-79
2021/06/06 04:40:29;;;;;;;30.30;27.23;;;20.20;96.30;;;;;;5036924;28;20037;-79
2021/06/06 04:42:54;;;;;;;29.73;26.75;;;20.20;96.50;;;;;;5021008;28;20044;-78
2021/06/06 04:45:22;;;;;;;32.00;28.90;;;20.20;96.50;;;;;;5038120;28;20131;-79
2021/06/06 04:47:48;;;;;;;32.25;29.10;;;20.20;96.50;;;;;;5056147;28;20116;-80
2021/06/06 04:50:15;;;;;;;32.35;29.02;;;20.30;96.50;;;;;;5041119;28;20508;-79
2021/06/06 04:52:41;;;;;;;33.55;30.15;;;20.30;96.30;;;;;;5011171;28;20407;-80
2021/06/06 04:55:19;;;;;;;34.97;31.65;;;20.40;96.40;;;;;;5048808;28;20040;-80
2021/06/06 04:57:45;;;;;;;38.72;34.88;;;20.30;96.40;;;;;;5025323;28;20036;-79
2021/06/06 05:00:16;;;;;;;37.40;33.80;;;20.30;96.60;;;;;;5055942;28;20108;-78
2021/06/06 05:02:42;;;;;;;35.60;31.83;;;20.30;96.60;;;;;;5041302;28;20037;-79
2021/06/06 05:05:09;;;;;;;42.40;37.90;;;20.30;96.80;;;;;;5031850;28;20092;-80
2021/06/06 05:07:35;;;;;;;41.28;37.08;;;20.30;96.70;;;;;;5046852;28;20104;-79
2021/06/06 05:10:03;;;;;;;43.47;38.90;;;20.30;96.70;;;;;;5043447;28;20078;-80
2021/06/06 05:12:29;;;;;;;40.67;36.58;;;20.20;97.00;;;;;;5058143;28;20558;-81
2021/06/06 05:14:54;;;;;;;40.67;36.08;;;20.20;97.00;;;;;;5041403;28;20056;-80
2021/06/06 05:17:20;;;;;;;43.58;36.55;;;20.20;97.10;;;;;;5029864;28;20041;-80
2021/06/06 05:19:46;;;;;;;43.03;38.38;;;20.30;97.10;;;;;;5063905;28;20029;-81
2021/06/06 05:22:11;;;;;;;39.80;35.95;;;20.20;97.20;;;;;;5046494;28;20048;-80
2021/06/06 05:24:37;;;;;;;43.28;38.65;;;20.20;97.00;;;;;;5058243;28;20090;-78
2021/06/06 05:27:03;;;;;;;41.05;36.90;;;20.20;96.90;;;;;;5061943;28;20040;-79
2021/06/06 05:29:29;;;;;;;39.42;35.53;;;20.20;96.90;;;;;;5071929;28;20117;-78
2021/06/06 05:31:55;;;;;;;39.35;35.55;;;20.20;97.00;;;;;;5033868;28;20064;-78
2021/06/06 05:34:20;;;;;;;41.35;37.08;;;20.30;97.00;;;;;;5061241;28;20048;-78
2021/06/06 05:36:47;;;;;;;37.50;33.75;;;20.30;96.80;;;;;;5035286;28;20474;-78
2021/06/06 05:39:12;;;;;;;34.58;31.15;;;20.30;96.80;;;;;;5042328;28;20040;-79
2021/06/06 05:41:38;;;;;;;40.97;36.95;;;20.30;96.70;;;;;;5043163;28;20041;-78
2021/06/06 05:44:05;;;;;;;36.95;33.20;;;20.40;96.60;;;;;;5040919;28;20433;-79
2021/06/06 05:46:31;;;;;;;33.55;30.27;;;20.40;96.70;;;;;;5040320;28;20045;-79
2021/06/06 05:48:57;;;;;;;34.85;31.45;;;20.40;96.80;;;;;;5024237;28;20045;-78
2021/06/06 05:51:23;;;;;;;39.47;35.58;;;20.50;96.80;;;;;;5025311;28;20029;-80
2021/06/06 05:53:49;;;;;;;37.03;33.47;;;20.50;96.60;;;;;;5063937;28;20035;-82
2021/06/06 05:56:14;;;;;;;38.80;34.90;;;20.40;96.70;;;;;;5038325;28;20049;-80
2021/06/06 05:58:40;;;;;;;40.15;36.15;;;20.50;96.70;;;;;;5005131;28;20059;-81
2021/06/06 06:01:07;;;;;;;40.10;36.08;;;20.50;96.60;;;;;;5014206;28;20029;-79
2021/06/06 06:03:33;;;;;;;36.72;33.25;;;20.30;96.60;;;;;;5019396;28;20503;-79
2021/06/06 06:05:59;;;;;;;37.28;33.63;;;20.30;96.60;;;;;;5030820;28;20118;-79
2021/06/06 06:08:28;;;;;;;36.67;33.35;;;20.40;96.60;;;;;;5040684;28;20057;-79
2021/06/06 06:10:56;;;;;;;39.45;35.80;;;20.40;96.60;;;;;;5025951;28;20035;-79
2021/06/06 06:13:25;;;;;;;37.17;33.78;;;20.40;96.70;;;;;;5032057;28;20040;-79
2021/06/06 06:15:50;;;;;;;36.30;32.83;;;20.50;96.50;;;;;;5057717;28;20032;-78
2021/06/06 06:18:18;;;;;;;34.22;30.85;;;20.50;96.50;;;;;;5053748;28;20110;-79
2021/06/06 06:20:43;;;;;;;37.13;33.50;;;20.50;96.50;;;;;;5057864;28;20792;-78
2021/06/06 06:23:10;;;;;;;35.55;32.15;;;20.50;96.40;;;;;;5029465;28;20041;-78
2021/06/06 06:25:36;;;;;;;36.45;33.08;;;20.60;96.30;;;;;;5021722;28;20053;-78
2021/06/06 06:28:04;;;;;;;35.10;31.75;;;20.70;96.20;;;;;;5054474;28;20021;-78
2021/06/06 06:30:33;;;;;;;34.13;31.02;;;20.70;96.10;;;;;;5033430;28;20033;-79
2021/06/06 06:32:59;;;;;;;35.05;31.50;;;20.70;96.10;;;;;;5035515;28;20416;-80
2021/06/06 06:35:25;;;;;;;33.15;29.95;;;20.70;96.00;;;;;;5040855;28;20037;-80
2021/06/06 06:37:51;;;;;;;35.67;32.33;;;20.70;96.10;;;;;;5045444;28;20035;-80
2021/06/06 06:40:17;;;;;;;37.15;33.75;;;20.60;96.20;;;;;;5045246;28;20517;-79
2021/06/06 06:42:44;;;;;;;35.88;32.65;;;20.60;96.20;;;;;;5042973;28;20079;-79
2021/06/06 06:45:14;;;;;;;35.67;32.28;;;20.70;95.90;;;;;;5029372;28;20025;-79
2021/06/06 06:47:40;;;;;;;34.55;31.30;;;20.70;95.80;;;;;;5059647;28;20025;-79
2021/06/06 06:50:07;;;;;;;33.65;30.55;;;20.70;95.60;;;;;;5059968;28;20132;-79
2021/06/06 06:52:36;;;;;;;32.58;29.58;;;20.70;95.60;;;;;;5034241;28;20059;-79
2021/06/06 06:55:08;;;;;;;34.22;31.23;;;20.80;95.80;;;;;;5026673;28;20414;-81
2021/06/06 06:57:34;;;;;;;34.08;30.63;;;20.80;95.50;;;;;;5041696;28;20029;-78
2021/06/06 07:00:00;;;;;;;34.22;31.20;;;20.70;95.70;;;;;;5059286;28;20056;-79
2021/06/06 07:02:25;;;;;;;34.53;31.33;;;20.70;95.70;;;;;;5060178;28;20043;-79
2021/06/06 07:04:51;;;;;;;33.65;30.45;;;20.80;95.40;;;;;;5046565;28;20119;-79
2021/06/06 07:07:17;;;;;;;33.15;30.25;;;20.70;95.40;;;;;;5020493;28;20044;-78
2021/06/06 07:09:43;;;;;;;32.97;29.95;;;20.90;95.40;;;;;;5016267;28;20037;-79
2021/06/06 07:12:09;;;;;;;36.10;32.67;;;20.90;95.00;;;;;;5031128;28;20024;-78
2021/06/06 07:14:35;;;;;;;33.63;30.45;;;20.80;95.00;;;;;;5056603;28;20082;-78
2021/06/06 07:17:01;;;;;;;32.08;29.23;;;20.90;94.90;;;;;;5074422;28;20048;-78
2021/06/06 07:19:26;;;;;;;32.60;29.60;;;20.80;95.30;;;;;;5051782;28;20047;-78
2021/06/06 07:21:52;;;;;;;33.22;30.23;;;21.00;95.20;;;;;;5036181;28;20036;-78
2021/06/06 07:24:18;;;;;;;30.42;27.52;;;21.20;94.90;;;;;;5023457;28;20052;-79
2021/06/06 07:26:47;;;;;;;31.05;28.05;;;21.30;94.60;;;;;;5024844;28;20037;-79
2021/06/06 07:29:15;;;;;;;30.08;27.38;;;21.40;94.30;;;;;;5034221;28;20035;-79
2021/06/06 07:31:44;;;;;;;31.05;28.25;;;21.30;94.50;;;;;;5034744;28;20047;-79
2021/06/06 07:34:10;;;;;;;29.48;26.80;;;21.40;94.20;;;;;;4992431;28;20042;-78
2021/06/06 07:36:36;;;;;;;29.75;27.05;;;21.50;93.90;;;;;;5039302;28;20029;-79
2021/06/06 07:39:03;;;;;;;29.98;27.38;;;21.60;93.60;;;;;;5018424;28;20098;-79
2021/06/06 07:41:29;;;;;;;30.88;27.88;;;21.50;93.70;;;;;;5053992;28;20112;-78
2021/06/06 07:43:57;;;;;;;30.05;27.35;;;21.40;94.10;;;;;;5019343;28;20056;-78
2021/06/06 07:46:23;;;;;;;32.70;29.52;;;21.40;94.00;;;;;;5043732;28;20051;-78
2021/06/06 07:48:48;;;;;;;31.23;28.42;;;21.40;93.90;;;;;;5022318;28;20112;-79
2021/06/06 07:51:14;;;;;;;32.00;29.23;;;21.40;93.70;;;;;;5037171;28;20036;-79
2021/06/06 07:53:39;;;;;;;32.42;29.48;;;21.50;93.70;;;;;;5036344;28;20029;-78
2021/06/06 07:56:05;;;;;;;31.40;28.38;;;21.80;93.60;;;;;;5018143;28;20496;-78
2021/06/06 07:58:34;;;;;;;32.83;29.92;;;21.80;93.40;;;;;;5042968;28;20042;-78
2021/06/06 08:01:01;;;;;;;32.70;29.70;;;21.90;93.20;;;;;;5051577;28;20035;-78
2021/06/06 08:03:29;;;;;;;31.48;28.67;;;21.80;92.70;;;;;;5033398;28;20037;-80
2021/06/06 08:05:57;;;;;;;32.88;30.02;;;21.70;93.20;;;;;;5048357;28;20036;-79
2021/06/06 08:08:23;;;;;;;32.90;30.10;;;21.70;93.10;;;;;;5055763;28;20029;-80
2021/06/06 08:10:52;;;;;;;31.92;29.10;;;21.70;93.20;;;;;;5014649;28;20043;-79
2021/06/06 08:13:19;;;;;;;32.17;29.17;;;21.80;93.10;;;;;;5039950;28;20021;-79
2021/06/06 08:15:45;;;;;;;33.65;30.75;;;21.80;93.10;;;;;;5021853;28;20040;-80
2021/06/06 08:18:15;;;;;;;31.60;28.75;;;21.70;93.40;;;;;;5038144;28;20045;-80
2021/06/06 08:20:45;;;;;;;34.65;31.58;;;21.90;93.20;;;;;;5041372;28;20033;-79
2021/06/06 08:23:11;;;;;;;33.08;30.25;;;22.10;92.70;;;;;;5041348;28;20389;-81
2021/06/06 08:25:38;;;;;;;34.35;31.25;;;22.30;92.40;;;;;;5050425;28;20033;-80
2021/06/06 08:28:05;;;;;;;32.20;29.23;;;22.50;92.00;;;;;;5042703;28;20023;-79
2021/06/06 08:30:43;;;;;;;33.50;30.52;;;22.60;91.60;;;;;;5039606;28;20039;-80
2021/06/06 08:33:10;;;;;;;33.55;30.35;;;22.60;91.60;;;;;;5039489;28;20037;-80
2021/06/06 08:35:37;;;;;;;34.05;30.92;;;22.50;91.70;;;;;;5020845;28;20117;-79
2021/06/06 08:38:03;;;;;;;32.83;30.08;;;22.70;91.40;;;;;;5037425;28;20080;-79
2021/06/06 08:40:47;;;;;;;35.03;31.77;;;22.60;91.60;;;;;;5042999;28;20048;-79
2021/06/06 08:43:13;;;;;;;32.03;29.25;;;22.70;91.20;;;;;;5026757;28;20504;-79
2021/06/06 08:45:49;;;;;;;33.20;30.38;;;22.70;90.90;;;;;;5027259;28;20029;-79
2021/06/06 08:48:21;;;;;;;33.38;30.48;;;22.70;90.70;;;;;;5043785;28;20025;-79
2021/06/06 08:51:03;;;;;;;35.00;31.95;;;22.80;90.90;;;;;;5032051;28;20146;-79
2021/06/06 08:53:46;;;;;;;33.38;30.60;;;22.70;91.00;;;;;;5043135;28;20029;-81
2021/06/06 08:56:18;;;;;;;34.13;31.02;;;22.70;91.00;;;;;;5053873;28;20033;-79
2021/06/06 08:58:59;;;;;;;37.28;33.85;;;22.70;90.90;;;;;;5029322;28;20045;-79
2021/06/06 09:01:29;;;;;;;35.10;31.90;;;22.60;91.00;;;;;;5044063;28;20120;-79
2021/06/06 09:03:58;;;;;;;34.35;31.35;;;22.80;90.80;;;;;;5035358;28;20085;-80
2021/06/06 09:06:35;;;;;;;35.70;32.35;;;23.20;90.10;;;;;;5037134;28;20028;-80
2021/06/06 09:09:02;;;;;;;34.95;31.83;;;23.50;89.70;;;;;;5034664;28;20029;-80
2021/06/06 09:11:31;;;;;;;35.83;32.60;;;23.40;89.40;;;;;;5026864;28;20036;-80
2021/06/06 09:13:56;;;;;;;35.67;32.55;;;23.20;90.10;;;;;;5036082;28;20492;-79
2021/06/06 09:16:26;;;;;;;38.28;34.75;;;23.00;90.30;;;;;;5025668;28;20077;-80
2021/06/06 09:19:11;;;;;;;34.70;31.35;;;22.80;90.50;;;;;;5042963;28;20043;-79
2021/06/06 09:21:53;;;;;;;33.35;30.20;;;22.70;90.70;;;;;;5043086;28;20061;-78
2021/06/06 09:24:33;;;;;;;35.05;31.80;;;22.50;90.80;;;;;;5045680;28;20029;-79
2021/06/06 09:27:25;;;;;;;33.63;30.63;;;22.20;91.10;;;;;;5026147;28;20041;-79
2021/06/06 09:30:08;;;;;;;34.13;31.02;;;22.30;91.10;;;;;;5029652;28;20032;-79
2021/06/06 09:32:34;;;;;;;33.25;30.35;;;22.40;90.80;;;;;;5060228;28;20024;-79
2021/06/06 09:35:21;;;;;;;33.20;30.33;;;22.60;90.80;;;;;;5044651;28;20104;-79
2021/06/06 09:37:51;;;;;;;33.90;30.90;;;22.50;90.80;;;;;;5057477;28;20044;-79
2021/06/06 09:40:31;;;;;;;35.47;32.17;;;22.60;90.70;;;;;;5040438;28;20031;-78
2021/06/06 09:42:57;;;;;;;32.78;29.88;;;22.60;90.80;;;;;;5038396;28;20473;-79
2021/06/06 09:45:29;;;;;;;32.08;29.20;;;22.80;90.70;;;;;;5054935;28;20040;-78
2021/06/06 09:48:00;;;;;;;31.40;28.60;;;22.80;90.60;;;;;;5023759;28;20032;-77
2021/06/06 09:50:31;;;;;;;34.10;31.00;;;23.10;90.40;;;;;;5037776;28;20033;-77
2021/06/06 09:52:57;;;;;;;34.30;31.30;;;23.30;89.50;;;;;;5041178;28;20058;-78
2021/06/06 09:55:31;;;;;;;36.08;32.88;;;23.20;89.30;;;;;;5054042;28;20489;-77
2021/06/06 09:58:29;;;;;;;35.38;32.47;;;23.10;89.30;;;;;;5037711;28;20079;-77
2021/06/06 10:01:01;;;;;;;35.75;32.55;;;23.10;89.40;;;;;;5014317;28;20041;-78
2021/06/06 10:03:32;;;;;;;37.05;33.85;;;23.10;88.30;;;;;;5031673;28;20125;-78
2021/06/06 10:06:16;;;;;;;33.08;30.17;;;23.00;89.10;;;;;;5031161;28;20053;-78
2021/06/06 10:09:04;;;;;;;34.03;31.02;;;23.10;89.10;;;;;;5038665;28;20383;-80
2021/06/06 10:12:06;;;;;;;33.05;30.20;;;23.10;88.50;;;;;;5053979;28;20602;-79
2021/06/06 10:14:59;;;;;;;34.38;31.35;;;23.40;87.70;;;;;;5031150;28;20496;-79
2021/06/06 10:18:01;;;;;;;35.13;31.92;;;23.40;87.60;;;;;;5045843;28;20037;-79
2021/06/06 10:20:26;;;;;;;35.03;31.92;;;23.50;87.70;;;;;;5008140;28;20041;-78
2021/06/06 10:23:04;;;;;;;35.47;32.08;;;23.30;87.10;;;;;;5048355;28;20041;-77
2021/06/06 10:25:53;;;;;;;35.47;32.13;;;23.30;87.30;;;;;;5035490;28;20025;-79
2021/06/06 10:28:24;;;;;;;33.28;30.20;;;23.30;87.40;;;;;;5055644;28;20021;-79
2021/06/06 10:31:47;;;;;;;;;;;;;;;;;;;;;
2021/06/06 10:34:49;;;;;;;32.13;29.23;;;23.50;85.50;;;;;;5018668;28;20076;-77
2021/06/06 10:37:41;;;;;;;30.42;27.55;;;23.60;85.20;;;;;;5060424;28;20041;-78
2021/06/06 10:40:38;;;;;;;32.60;29.63;;;23.70;85.20;;;;;;5041805;28;20157;-79
2021/06/06 10:43:19;;;;;;;33.55;30.58;;;23.60;86.00;;;;;;5059658;28;20370;-79
2021/06/06 10:45:59;;;;;;;33.28;30.38;;;23.50;86.10;;;;;;5055917;28;20432;-80
2021/06/06 10:48:36;;;;;;;32.13;29.45;;;23.30;86.40;;;;;;5023981;28;20112;-79
2021/06/06 10:51:34;;;;;;;32.20;29.38;;;23.50;86.30;;;;;;5021106;28;20115;-78
2021/06/06 10:54:20;;;;;;;31.52;28.67;;;23.50;87.00;;;;;;5031892;28;20050;-81
2021/06/06 10:57:28;;;;;;;32.17;29.38;;;23.40;87.60;;;;;;5036694;28;20022;-79
2021/06/06 11:00:09;;;;;;;28.33;25.92;;;23.60;87.20;;;;;;5025827;28;20037;-78
2021/06/06 11:02:49;;;;;;;26.45;24.35;;;23.60;87.10;;;;;;5049192;28;20033;-79
2021/06/06 11:05:35;;;;;;;27.17;24.67;;;23.80;86.10;;;;;;5047627;28;20577;-78
2021/06/06 11:08:01;;;;;;;27.45;25.13;;;24.20;84.30;;;;;;5029142;28;20041;-78
2021/06/06 11:10:35;;;;;;;26.50;24.10;;;24.20;83.60;;;;;;5049240;28;20074;-79
2021/06/06 11:13:39;;;;;;;24.65;22.58;;;24.10;83.80;;;;;;5030165;28;20025;-78
2021/06/06 11:16:16;;;;;;;24.35;22.35;;;24.00;84.00;;;;;;5007003;28;20028;-78
2021/06/06 11:18:51;;;;;;;24.77;22.48;;;24.20;83.90;;;;;;5042238;28;20045;-78
2021/06/06 11:22:06;;;;;;;23.38;21.05;;;24.20;83.60;;;;;;5008014;28;20048;-79
2021/06/06 11:25:35;;;;;;;;;;;;;;;;;;;;;
2021/06/06 11:28:41;;;;;;;26.67;24.52;;;24.70;82.10;;;;;;5053781;28;20112;-77
2021/06/06 11:31:28;;;;;;;29.25;26.60;;;24.60;83.50;;;;;;5050407;28;20053;-77
2021/06/06 11:34:11;;;;;;;27.08;24.77;;;23.90;85.50;;;;;;5018558;28;20037;-78
2021/06/06 11:36:40;;;;;;;27.02;24.13;;;23.70;85.90;;;;;;5032508;28;20030;-77
2021/06/06 11:39:33;;;;;;;25.75;23.45;;;23.80;85.20;;;;;;5037192;28;20103;-77
2021/06/06 11:42:00;;;;;;;28.08;25.67;;;23.80;85.20;;;;;;5043572;28;20036;-76
2021/06/06 11:44:43;;;;;;;31.98;29.20;;;24.00;85.50;;;;;;5036981;28;20033;-77
2021/06/06 11:47:25;;;;;;;29.23;26.67;;;24.20;85.10;;;;;;5033802;28;20032;-76
2021/06/06 11:50:10;;;;;;;26.13;23.92;;;24.50;84.30;;;;;;5032225;28;20400;-77
2021/06/06 11:52:42;;;;;;;30.30;27.60;;;24.80;83.40;;;;;;5042232;28;20033;-78
2021/06/06 11:55:29;;;;;;;30.02;27.52;;;24.90;83.10;;;;;;5041574;28;20029;-75
2021/06/06 11:58:05;;;;;;;29.63;27.13;;;24.80;83.90;;;;;;5056133;28;20365;-76
2021/06/06 12:01:06;;;;;;;29.23;26.77;;;24.70;84.10;;;;;;5046843;28;20135;-76
2021/06/06 12:03:38;;;;;;;28.85;26.27;;;24.40;84.20;;;;;;5029479;28;20033;-75
2021/06/06 12:06:08;;;;;;;28.80;26.40;;;24.20;84.90;;;;;;5060593;28;20072;-77
2021/06/06 12:08:41;;;;;;;32.53;29.50;;;24.40;84.60;;;;;;5042447;28;20083;-77
2021/06/06 12:11:21;;;;;;;33.30;30.35;;;24.80;84.30;;;;;;5038063;28;20036;-78
2021/06/06 12:13:50;;;;;;;29.48;27.00;;;24.70;84.30;;;;;;5037329;28;20424;-76
2021/06/06 12:16:17;;;;;;;32.28;29.33;;;24.90;84.30;;;;;;5022036;28;20039;-77
2021/06/06 12:18:59;;;;;;;33.22;30.23;;;24.80;83.70;;;;;;5040688;28;20033;-76
2021/06/06 12:21:25;;;;;;;34.55;31.48;;;24.90;83.00;;;;;;5058465;28;20812;-75
2021/06/06 12:24:05;;;;;;;35.47;32.20;;;24.60;84.40;;;;;;5026366;28;20103;-76
2021/06/06 12:26:43;;;;;;;32.50;29.60;;;24.50;84.10;;;;;;5048450;28;20033;-76
2021/06/06 12:29:09;;;;;;;34.60;31.52;;;24.40;83.50;;;;;;5057115;28;20029;-76
2021/06/06 12:31:45;;;;;;;33.05;30.23;;;24.30;83.80;;;;;;5060795;28;20041;-77
2021/06/06 12:34:13;;;;;;;33.28;30.30;;;24.50;83.60;;;;;;5053713;28;20025;-77
2021/06/06 12:36:40;;;;;;;31.27;28.58;;;24.60;83.90;;;;;;5040729;28;20393;-77
2021/06/06 12:39:09;;;;;;;33.92;30.98;;;24.80;83.10;;;;;;5024261;28;20029;-77
2021/06/06 12:41:38;;;;;;;31.40;28.70;;;25.10;81.80;;;;;;5055154;28;20041;-76
2021/06/06 12:44:07;;;;;;;33.38;30.48;;;25.20;81.10;;;;;;5050223;28;20052;-77
2021/06/06 12:46:44;;;;;;;33.50;30.40;;;25.10;82.30;;;;;;5048778;28;20048;-77
2021/06/06 12:49:09;;;;;;;34.35;31.35;;;25.00;83.10;;;;;;5061005;28;20033;-77
2021/06/06 12:51:48;;;;;;;31.25;28.65;;;24.90;82.40;;;;;;5056679;28;20037;-75
2021/06/06 12:54:46;;;;;;;33.95;30.80;;;25.00;82.30;;;;;;5051920;28;20036;-75